Time;durP1;ratioP1;P1;durP2;ratioP2;P2;SDS_P1;SDS_P2;PMS_P1;PMS_P2;Temp;Humidity;BMP_temperature;BMP_pressure;BME280_temperature;BME280_humidity;BME280_pressure;Samples;Min_cycle;Max_cycle;Signal;HPM_P1;HPM_P2
2022/01/08 00:00:21;;;;;;;;;;;;;;;;;;1031642;28;870;-43
2022/01/08 00:00:51;;;;;;;;;;;;;;;;;;1031994;28;926;-44
2022/01/08 00:01:21;;;;;;;;;;;;;;;;;;1031777;28;866;-43
2022/01/08 00:01:52;;;;;;;;;;;;;;;;;;1032047;28;791;-43
2022/01/08 00:02:22;;;;;;;;;;;;;;;;;;1035138;28;1253;-44
2022/01/08 00:02:53;;;;;;;;;;;;;;;;;;1036143;28;890;-44
2022/01/08 00:03:24;;;;;;;;;;;;;;;;;;1035759;28;946;-44
2022/01/08 00:03:54;;;;;;;;;;;;;;;;;;1036016;28;930;-43
2022/01/08 00:04:25;;;;;;;;;;;;;;;;;;1035820;28;799;-43
2022/01/08 00:04:57;;;;;;;;;;;;;;;;;;1035953;28;1557;-43
2022/01/08 00:05:27;;;;;;;;;;;;;;;;;;1035772;28;1903;-44
2022/01/08 00:05:58;;;;;;;;;;;;;;;;;;1031479;28;1108;-43
2022/01/08 00:06:29;;;;;;;;;;;;;;;;;;1031800;28;1025;-43
2022/01/08 00:06:59;;;;;;;;;;;;;;;;;;1031871;28;863;-44
2022/01/08 00:07:29;;;;;;;;;;;;;;;;;;1031759;28;795;-44
2022/01/08 00:08:00;;;;;;;;;;;;;;;;;;1031920;28;1000;-44
2022/01/08 00:08:31;;;;;;;;;;;;;;;;;;1032011;28;866;-43
2022/01/08 00:09:01;;;;;;;;;;;;;;;;;;1031748;28;938;-43
2022/01/08 00:09:32;;;;;;;;;;;;;;;;;;1031918;28;905;-43
2022/01/08 00:10:03;;;;;;;;;;;;;;;;;;1031902;28;851;-43
2022/01/08 00:10:33;;;;;;;;;;;;;;;;;;1031548;28;847;-43
2022/01/08 00:11:06;;;;;;;;;;;;;;;;;;1031524;28;773;-43
2022/01/08 00:11:40;;;;;;;;;;;;;;;;;;1031439;28;827;-44
2022/01/08 00:12:13;;;;;;;;;;;;;;;;;;1031778;28;950;-44
2022/01/08 00:12:43;;;;;;;;;;;;;;;;;;1031716;28;922;-43
2022/01/08 00:13:14;;;;;;;;;;;;;;;;;;1031924;28;897;-43
2022/01/08 00:13:45;;;;;;;;;;;;;;;;;;1031789;28;990;-44
2022/01/08 00:14:16;;;;;;;;;;;;;;;;;;1031322;28;842;-44
2022/01/08 00:14:46;;;;;;;;;;;;;;;;;;1031960;28;846;-42
2022/01/08 00:15:18;;;;;;;;;;;;;;;;;;1031844;28;807;-44
2022/01/08 00:15:48;;;;;;;;;;;;;;;;;;1031916;28;977;-42
2022/01/08 00:16:18;;;;;;;;;;;;;;;;;;1031875;28;854;-43
2022/01/08 00:16:49;;;;;;;;;;;;;;;;;;1031850;28;846;-43
2022/01/08 00:17:22;;;;;;;;;;;;;;;;;;1027325;28;799;-44
2022/01/08 00:17:52;;;;;;;;;;;;;;;;;;1027467;28;982;-44
2022/01/08 00:18:23;;;;;;;;;;;;;;;;;;1027462;28;815;-43
2022/01/08 00:18:54;;;;;;;;;;;;;;;;;;1028193;28;1285;-43
2022/01/08 00:19:24;;;;;;;;;;;;;;;;;;1031750;28;866;-44
2022/01/08 00:19:55;;;;;;;;;;;;;;;;;;1031834;28;927;-43
2022/01/08 00:20:27;;;;;;;;;;;;;;;;;;1031793;28;878;-43
2022/01/08 00:20:58;;;;;;;;;;;;;;;;;;1031764;28;930;-44
2022/01/08 00:21:28;;;;;;;;;;;;;;;;;;1031834;28;893;-44
2022/01/08 00:21:59;;;;;;;;;;;;;;;;;;1031837;28;800;-43
2022/01/08 00:22:29;;;;;;;;;;;;;;;;;;1031859;28;902;-44
2022/01/08 00:22:59;;;;;;;;;;;;;;;;;;1031876;28;1642;-44
2022/01/08 00:23:30;;;;;;;;;;;;;;;;;;1031800;28;851;-43
2022/01/08 00:24:01;;;;;;;;;;;;;;;;;;1031917;28;846;-43
2022/01/08 00:24:31;;;;;;;;;;;;;;;;;;1031971;28;855;-44
2022/01/08 00:25:02;;;;;;;;;;;;;;;;;;1031706;28;1189;-43
2022/01/08 00:25:33;;;;;;;;;;;;;;;;;;1031771;28;1975;-43
2022/01/08 00:26:04;;;;;;;;;;;;;;;;;;1031765;28;831;-43
2022/01/08 00:26:34;;;;;;;;;;;;;;;;;;1031971;28;882;-44
2022/01/08 00:27:05;;;;;;;;;;;;;;;;;;1031682;28;874;-43
2022/01/08 00:27:36;;;;;;;;;;;;;;;;;;1031718;28;961;-43
2022/01/08 00:28:06;;;;;;;;;;;;;;;;;;1031916;28;862;-44
2022/01/08 00:28:36;;;;;;;;;;;;;;;;;;1031868;28;996;-44
2022/01/08 00:29:07;;;;;;;;;;;;;;;;;;1031894;28;842;-44
2022/01/08 00:29:39;;;;;;;;;;;;;;;;;;1032429;28;1103;-44
2022/01/08 00:30:10;;;;;;;;;;;;;;;;;;1035780;28;897;-43
2022/01/08 00:30:40;;;;;;;;;;;;;;;;;;1034844;28;1100;-43
2022/01/08 00:31:11;;;;;;;;;;;;;;;;;;1031911;28;820;-44
2022/01/08 00:31:41;;;;;;;;;;;;;;;;;;1031677;28;990;-43
2022/01/08 00:32:13;;;;;;;;;;;;;;;;;;1031870;28;743;-44
2022/01/08 00:32:44;;;;;;;;;;;;;;;;;;1031829;28;866;-43
2022/01/08 00:33:15;;;;;;;;;;;;;;;;;;1031856;28;1105;-43
2022/01/08 00:33:47;;;;;;;;;;;;;;;;;;1031803;28;882;-42
2022/01/08 00:34:17;;;;;;;;;;;;;;;;;;1031723;28;1020;-44
2022/01/08 00:34:48;;;;;;;;;;;;;;;;;;1032098;28;858;-43
2022/01/08 00:35:19;;;;;;;;;;;;;;;;;;1031540;28;1098;-43
2022/01/08 00:35:49;;;;;;;;;;;;;;;;;;1031836;28;1355;-43
2022/01/08 00:36:19;;;;;;;;;;;;;;;;;;1031598;28;1016;-43
2022/01/08 00:36:50;;;;;;;;;;;;;;;;;;1031876;28;957;-43
2022/01/08 00:37:20;;;;;;;;;;;;;;;;;;1031678;28;866;-44
2022/01/08 00:37:51;;;;;;;;;;;;;;;;;;1031935;28;847;-43
2022/01/08 00:38:21;;;;;;;;;;;;;;;;;;1031583;28;818;-43
2022/01/08 00:38:52;;;;;;;;;;;;;;;;;;1031940;28;1380;-43
2022/01/08 00:39:22;;;;;;;;;;;;;;;;;;1031585;28;906;-42
2022/01/08 00:39:53;;;;;;;;;;;;;;;;;;1032014;28;791;-43
2022/01/08 00:40:23;;;;;;;;;;;;;;;;;;1031380;28;823;-43
2022/01/08 00:40:53;;;;;;;;;;;;;;;;;;1031929;28;989;-43
2022/01/08 00:41:25;;;;;;;;;;;;;;;;;;1031637;28;1123;-43
2022/01/08 00:41:56;;;;;;;;;;;;;;;;;;1031830;28;875;-44
2022/01/08 00:42:29;;;;;;;;;;;;;;;;;;1031581;28;799;-41
2022/01/08 00:42:59;;;;;;;;;;;;;;;;;;1031872;28;958;-43
2022/01/08 00:43:29;;;;;;;;;;;;;;;;;;1031690;28;752;-43
2022/01/08 00:44:00;;;;;;;;;;;;;;;;;;1031905;28;866;-43
2022/01/08 00:44:30;;;;;;;;;;;;;;;;;;1031672;28;907;-43
2022/01/08 00:45:01;;;;;;;;;;;;;;;;;;1031872;28;1040;-42
2022/01/08 00:45:31;;;;;;;;;;;;;;;;;;1031692;28;1968;-43
2022/01/08 00:46:02;;;;;;;;;;;;;;;;;;1031768;28;1089;-43
2022/01/08 00:46:34;;;;;;;;;;;;;;;;;;1031702;28;962;-42
2022/01/08 00:47:04;;;;;;;;;;;;;;;;;;1031700;28;993;-43
2022/01/08 00:47:35;;;;;;;;;;;;;;;;;;1031720;28;815;-43
2022/01/08 00:48:06;;;;;;;;;;;;;;;;;;1031748;28;968;-42
2022/01/08 00:48:36;;;;;;;;;;;;;;;;;;1031349;28;1126;-43
2022/01/08 00:49:06;;;;;;;;;;;;;;;;;;1027716;28;954;-43
2022/01/08 00:49:37;;;;;;;;;;;;;;;;;;1027690;28;838;-43
2022/01/08 00:50:08;;;;;;;;;;;;;;;;;;1027711;28;914;-43
2022/01/08 00:50:38;;;;;;;;;;;;;;;;;;1027537;28;851;-43
2022/01/08 00:51:09;;;;;;;;;;;;;;;;;;1027787;28;811;-43
2022/01/08 00:51:39;;;;;;;;;;;;;;;;;;1027580;28;864;-43
2022/01/08 00:52:10;;;;;;;;;;;;;;;;;;1027838;28;896;-42
2022/01/08 00:52:41;;;;;;;;;;;;;;;;;;1027522;28;887;-43
2022/01/08 00:53:11;;;;;;;;;;;;;;;;;;1027851;28;866;-43
2022/01/08 00:53:41;;;;;;;;;;;;;;;;;;1027531;28;885;-43
2022/01/08 00:54:12;;;;;;;;;;;;;;;;;;1027850;28;796;-43
2022/01/08 00:54:42;;;;;;;;;;;;;;;;;;1027616;28;872;-43
2022/01/08 00:55:13;;;;;;;;;;;;;;;;;;1027716;28;867;-43
2022/01/08 00:55:43;;;;;;;;;;;;;;;;;;1027634;28;882;-43
2022/01/08 00:56:16;;;;;;;;;;;;;;;;;;1027914;28;965;-43
2022/01/08 00:56:48;;;;;;;;;;;;;;;;;;1027646;28;768;-43
2022/01/08 00:57:19;;;;;;;;;;;;;;;;;;1027620;28;1304;-43
2022/01/08 00:57:49;;;;;;;;;;;;;;;;;;1027557;28;855;-43
2022/01/08 00:58:20;;;;;;;;;;;;;;;;;;1027724;28;836;-43
2022/01/08 00:58:50;;;;;;;;;;;;;;;;;;1027762;28;835;-43
2022/01/08 00:59:20;;;;;;;;;;;;;;;;;;1027664;28;978;-43
2022/01/08 00:59:51;;;;;;;;;;;;;;;;;;1027742;28;851;-43
2022/01/08 01:00:21;;;;;;;;;;;;;;;;;;1027560;28;980;-43
2022/01/08 01:00:52;;;;;;;;;;;;;;;;;;1027754;28;796;-43
2022/01/08 01:01:22;;;;;;;;;;;;;;;;;;1027798;28;835;-43
2022/01/08 01:01:53;;;;;;;;;;;;;;;;;;1027654;28;875;-44
2022/01/08 01:02:23;;;;;;;;;;;;;;;;;;1027833;28;854;-43
2022/01/08 01:02:53;;;;;;;;;;;;;;;;;;1027582;28;855;-43
2022/01/08 01:03:24;;;;;;;;;;;;;;;;;;1027700;28;843;-44
2022/01/08 01:03:54;;;;;;;;;;;;;;;;;;1027663;28;1005;-43
2022/01/08 01:04:25;;;;;;;;;;;;;;;;;;1027587;28;838;-43
2022/01/08 01:04:55;;;;;;;;;;;;;;;;;;1027759;28;930;-43
2022/01/08 01:05:26;;;;;;;;;;;;;;;;;;1027554;28;850;-43
2022/01/08 01:05:56;;;;;;;;;;;;;;;;;;1027657;28;1910;-43
2022/01/08 01:06:27;;;;;;;;;;;;;;;;;;1027751;28;965;-43
2022/01/08 01:06:57;;;;;;;;;;;;;;;;;;1027678;28;1005;-43
2022/01/08 01:07:28;;;;;;;;;;;;;;;;;;1027639;28;803;-43
2022/01/08 01:07:58;;;;;;;;;;;;;;;;;;1027568;28;974;-43
2022/01/08 01:08:29;;;;;;;;;;;;;;;;;;1027705;28;859;-43
2022/01/08 01:08:59;;;;;;;;;;;;;;;;;;1027785;28;875;-43
2022/01/08 01:09:29;;;;;;;;;;;;;;;;;;1027586;28;800;-43
2022/01/08 01:10:00;;;;;;;;;;;;;;;;;;1027597;28;847;-43
2022/01/08 01:10:30;;;;;;;;;;;;;;;;;;1027664;28;934;-43
2022/01/08 01:11:01;;;;;;;;;;;;;;;;;;1027459;28;859;-43
2022/01/08 01:11:31;;;;;;;;;;;;;;;;;;1027741;28;882;-43
2022/01/08 01:12:03;;;;;;;;;;;;;;;;;;1027586;28;870;-43
2022/01/08 01:12:33;;;;;;;;;;;;;;;;;;1027568;28;1092;-43
2022/01/08 01:13:04;;;;;;;;;;;;;;;;;;1027639;28;879;-43
2022/01/08 01:13:34;;;;;;;;;;;;;;;;;;1027465;28;1055;-43
2022/01/08 01:14:05;;;;;;;;;;;;;;;;;;1027625;28;803;-43
2022/01/08 01:14:35;;;;;;;;;;;;;;;;;;1027771;28;957;-43
2022/01/08 01:15:07;;;;;;;;;;;;;;;;;;1027574;28;863;-43
2022/01/08 01:15:37;;;;;;;;;;;;;;;;;;1027561;28;954;-43
2022/01/08 01:16:08;;;;;;;;;;;;;;;;;;1027659;28;866;-43
2022/01/08 01:16:38;;;;;;;;;;;;;;;;;;1027660;28;823;-43
2022/01/08 01:17:09;;;;;;;;;;;;;;;;;;1027793;28;807;-43
2022/01/08 01:17:39;;;;;;;;;;;;;;;;;;1027452;28;788;-43
2022/01/08 01:18:10;;;;;;;;;;;;;;;;;;1027603;28;950;-43
2022/01/08 01:18:40;;;;;;;;;;;;;;;;;;1027592;28;925;-43
2022/01/08 01:19:10;;;;;;;;;;;;;;;;;;1027623;28;863;-43
2022/01/08 01:19:41;;;;;;;;;;;;;;;;;;1027592;28;978;-43
2022/01/08 01:20:13;;;;;;;;;;;;;;;;;;1027386;28;930;-43
2022/01/08 01:20:43;;;;;;;;;;;;;;;;;;1027700;28;899;-43
2022/01/08 01:21:14;;;;;;;;;;;;;;;;;;1027690;28;911;-43
2022/01/08 01:21:44;;;;;;;;;;;;;;;;;;1027433;28;1834;-43
2022/01/08 01:22:18;;;;;;;;;;;;;;;;;;1027234;28;692;-43
2022/01/08 01:23:36;;;;;;;;;;;;;;;;;;1027314;28;907;-43
2022/01/08 01:24:14;;;;;;;;;;;;;;;;;;1027509;28;728;-43
2022/01/08 01:24:46;;;;;;;;;;;;;;;;;;1027337;28;1392;-43
2022/01/08 01:25:22;;;;;;;;;;;;;;;;;;1027641;28;783;-43
2022/01/08 01:25:57;;;;;;;;;;;;;;;;;;1027050;28;1979;-44
2022/01/08 01:26:29;;;;;;;;;;;;;;;;;;1027398;28;1141;-43
2022/01/08 01:28:23;;;;;;;;;;;;;;;;;;1027458;28;886;-43
2022/01/08 01:28:59;;;;;;;;;;;;;;;;;;1027211;28;1753;-43
2022/01/08 01:30:17;;;;;;;;;;;;;;;;;;1027488;28;1316;-43
2022/01/08 01:47:27;;;;;;;;;;;;;;;;;;1031537;28;942;-43
2022/01/08 01:47:57;;;;;;;;;;;;;;;;;;1031370;28;1297;-43
2022/01/08 01:48:28;;;;;;;;;;;;;;;;;;1031642;28;859;-43
2022/01/08 01:48:58;;;;;;;;;;;;;;;;;;1028297;28;1402;-43
2022/01/08 01:49:29;;;;;;;;;;;;;;;;;;1027426;28;962;-43
2022/01/08 01:50:00;;;;;;;;;;;;;;;;;;1027556;28;863;-43
2022/01/08 01:50:31;;;;;;;;;;;;;;;;;;1027438;28;862;-43
2022/01/08 01:51:01;;;;;;;;;;;;;;;;;;1027556;28;950;-42
2022/01/08 01:51:32;;;;;;;;;;;;;;;;;;1027481;28;954;-43
2022/01/08 01:52:04;;;;;;;;;;;;;;;;;;1027391;28;883;-43
2022/01/08 01:52:37;;;;;;;;;;;;;;;;;;1027658;28;985;-43
2022/01/08 01:53:07;;;;;;;;;;;;;;;;;;1027409;28;914;-43
2022/01/08 01:53:41;;;;;;;;;;;;;;;;;;1027385;28;871;-43
2022/01/08 01:54:11;;;;;;;;;;;;;;;;;;1027531;28;930;-43
2022/01/08 01:54:42;;;;;;;;;;;;;;;;;;1027483;28;954;-43
2022/01/08 01:55:12;;;;;;;;;;;;;;;;;;1027674;28;899;-43
2022/01/08 01:55:43;;;;;;;;;;;;;;;;;;1027295;28;891;-43
2022/01/08 01:56:20;;;;;;;;;;;;;;;;;;1027659;28;875;-43
2022/01/08 01:56:50;;;;;;;;;;;;;;;;;;1027421;28;830;-43
2022/01/08 01:57:20;;;;;;;;;;;;;;;;;;1027496;28;913;-43
2022/01/08 01:57:52;;;;;;;;;;;;;;;;;;1027384;28;859;-43
2022/01/08 01:58:22;;;;;;;;;;;;;;;;;;1027401;28;894;-43
2022/01/08 01:58:53;;;;;;;;;;;;;;;;;;1027617;28;911;-43
2022/01/08 01:59:27;;;;;;;;;;;;;;;;;;1027574;28;842;-43
2022/01/08 01:59:58;;;;;;;;;;;;;;;;;;1027281;28;807;-43
2022/01/08 02:00:28;;;;;;;;;;;;;;;;;;1027465;28;950;-44
2022/01/08 02:01:01;;;;;;;;;;;;;;;;;;1027542;28;929;-43
2022/01/08 02:01:31;;;;;;;;;;;;;;;;;;1027477;28;827;-43
2022/01/08 02:02:02;;;;;;;;;;;;;;;;;;1027535;28;1018;-43
2022/01/08 02:02:32;;;;;;;;;;;;;;;;;;1027521;28;958;-43
2022/01/08 02:03:03;;;;;;;;;;;;;;;;;;1023255;29;891;-43
2022/01/08 02:03:33;;;;;;;;;;;;;;;;;;1023083;29;938;-43
2022/01/08 02:04:04;;;;;;;;;;;;;;;;;;1023151;29;891;-43
2022/01/08 02:04:34;;;;;;;;;;;;;;;;;;1023249;28;792;-43
2022/01/08 02:05:04;;;;;;;;;;;;;;;;;;1027313;28;911;-43
2022/01/08 02:05:35;;;;;;;;;;;;;;;;;;1027564;28;1914;-43
2022/01/08 02:06:06;;;;;;;;;;;;;;;;;;1022982;29;1245;-43
2022/01/08 02:06:37;;;;;;;;;;;;;;;;;;1023180;29;978;-43
2022/01/08 02:07:07;;;;;;;;;;;;;;;;;;1022954;29;970;-43
2022/01/08 02:07:38;;;;;;;;;;;;;;;;;;1023352;28;836;-43
2022/01/08 02:08:12;;;;;;;;;;;;;;;;;;1027346;28;906;-43
2022/01/08 02:08:42;;;;;;;;;;;;;;;;;;1027566;28;954;-43
2022/01/08 02:09:13;;;;;;;;;;;;;;;;;;1027338;28;919;-43
2022/01/08 02:09:43;;;;;;;;;;;;;;;;;;1027546;28;934;-43
2022/01/08 02:10:14;;;;;;;;;;;;;;;;;;1027073;28;958;-43
2022/01/08 02:10:44;;;;;;;;;;;;;;;;;;1027527;28;890;-43
2022/01/08 02:11:17;;;;;;;;;;;;;;;;;;1027446;28;874;-43
2022/01/08 02:12:02;;;;;;;;;;;;;;;;;;1027449;28;982;-43
2022/01/08 02:12:33;;;;;;;;;;;;;;;;;;1027505;28;996;-43
2022/01/08 02:13:03;;;;;;;;;;;;;;;;;;1027368;28;926;-43
2022/01/08 02:13:34;;;;;;;;;;;;;;;;;;1027430;28;863;-43
2022/01/08 02:14:04;;;;;;;;;;;;;;;;;;1027503;28;846;-43
2022/01/08 02:14:36;;;;;;;;;;;;;;;;;;1027536;28;838;-43
2022/01/08 02:15:06;;;;;;;;;;;;;;;;;;1027318;28;934;-43
2022/01/08 02:15:37;;;;;;;;;;;;;;;;;;1027413;28;1008;-43
2022/01/08 02:16:16;;;;;;;;;;;;;;;;;;1027403;28;898;-43
2022/01/08 02:16:46;;;;;;;;;;;;;;;;;;1027379;28;835;-43
2022/01/08 02:17:17;;;;;;;;;;;;;;;;;;1027334;28;815;-43
2022/01/08 02:17:47;;;;;;;;;;;;;;;;;;1027464;28;948;-43
2022/01/08 02:18:23;;;;;;;;;;;;;;;;;;1027330;28;846;-43
2022/01/08 02:18:53;;;;;;;;;;;;;;;;;;1027447;28;803;-43
2022/01/08 02:19:24;;;;;;;;;;;;;;;;;;1027439;28;933;-43
2022/01/08 02:19:55;;;;;;;;;;;;;;;;;;1027484;28;949;-43
2022/01/08 02:20:25;;;;;;;;;;;;;;;;;;1027242;28;934;-44
2022/01/08 02:20:57;;;;;;;;;;;;;;;;;;1027414;28;883;-43
2022/01/08 02:21:28;;;;;;;;;;;;;;;;;;1027315;28;1120;-43
2022/01/08 02:21:59;;;;;;;;;;;;;;;;;;1027558;28;791;-43
2022/01/08 02:22:29;;;;;;;;;;;;;;;;;;1027353;28;783;-43
2022/01/08 02:23:00;;;;;;;;;;;;;;;;;;1027502;28;858;-43
2022/01/08 02:23:30;;;;;;;;;;;;;;;;;;1027173;28;795;-43
2022/01/08 02:24:01;;;;;;;;;;;;;;;;;;1027566;28;881;-43
2022/01/08 02:24:31;;;;;;;;;;;;;;;;;;1027335;28;1115;-43
2022/01/08 02:25:02;;;;;;;;;;;;;;;;;;1027266;28;1124;-43
2022/01/08 02:25:32;;;;;;;;;;;;;;;;;;1027139;28;1906;-43
2022/01/08 02:26:03;;;;;;;;;;;;;;;;;;1027521;28;938;-43
2022/01/08 02:26:34;;;;;;;;;;;;;;;;;;1027432;28;847;-43
2022/01/08 02:27:04;;;;;;;;;;;;;;;;;;1027410;28;875;-43
2022/01/08 02:27:34;;;;;;;;;;;;;;;;;;1027364;28;997;-44
2022/01/08 02:28:06;;;;;;;;;;;;;;;;;;1027267;28;938;-43
2022/01/08 02:28:37;;;;;;;;;;;;;;;;;;1027608;28;831;-43
2022/01/08 02:29:11;;;;;;;;;;;;;;;;;;1027222;28;953;-43
2022/01/08 02:29:41;;;;;;;;;;;;;;;;;;1027392;28;872;-43
2022/01/08 02:30:12;;;;;;;;;;;;;;;;;;1027148;28;1643;-43
2022/01/08 02:30:43;;;;;;;;;;;;;;;;;;1027504;28;869;-43
2022/01/08 02:31:20;;;;;;;;;;;;;;;;;;1028200;28;1083;-43
2022/01/08 02:32:08;;;;;;;;;;;;;;;;;;1031280;28;1667;-43
2022/01/08 02:32:41;;;;;;;;;;;;;;;;;;1031528;28;902;-43
2022/01/08 02:33:11;;;;;;;;;;;;;;;;;;1031191;28;898;-42
2022/01/08 02:33:42;;;;;;;;;;;;;;;;;;1031424;28;818;-43
2022/01/08 02:34:12;;;;;;;;;;;;;;;;;;1031355;28;858;-43
2022/01/08 02:34:44;;;;;;;;;;;;;;;;;;1031500;28;925;-43
2022/01/08 02:35:16;;;;;;;;;;;;;;;;;;1031450;28;1194;-43
2022/01/08 02:35:50;;;;;;;;;;;;;;;;;;1031173;28;854;-43
2022/01/08 02:36:20;;;;;;;;;;;;;;;;;;1031463;28;835;-43
2022/01/08 02:36:50;;;;;;;;;;;;;;;;;;1031492;28;906;-43
2022/01/08 02:37:25;;;;;;;;;;;;;;;;;;1031086;28;997;-43
2022/01/08 02:37:55;;;;;;;;;;;;;;;;;;1031458;28;998;-43
2022/01/08 02:38:26;;;;;;;;;;;;;;;;;;1031161;28;830;-43
2022/01/08 02:38:56;;;;;;;;;;;;;;;;;;1031532;28;945;-43
2022/01/08 02:39:34;;;;;;;;;;;;;;;;;;1031200;28;823;-43
2022/01/08 02:40:05;;;;;;;;;;;;;;;;;;1031373;28;942;-43
2022/01/08 02:40:36;;;;;;;;;;;;;;;;;;1031302;28;964;-43
2022/01/08 02:41:09;;;;;;;;;;;;;;;;;;1031367;28;946;-43
2022/01/08 02:41:40;;;;;;;;;;;;;;;;;;1031414;28;887;-43
2022/01/08 02:42:13;;;;;;;;;;;;;;;;;;1031286;28;1009;-43
2022/01/08 02:42:51;;;;;;;;;;;;;;;;;;1031471;28;807;-43
2022/01/08 02:43:23;;;;;;;;;;;;;;;;;;1031448;28;886;-43
2022/01/08 02:43:54;;;;;;;;;;;;;;;;;;1031275;28;922;-43
2022/01/08 02:44:25;;;;;;;;;;;;;;;;;;1031220;28;1120;-43
2022/01/08 02:44:55;;;;;;;;;;;;;;;;;;1031327;28;1302;-43
2022/01/08 02:45:25;;;;;;;;;;;;;;;;;;1031387;28;949;-43
2022/01/08 02:45:56;;;;;;;;;;;;;;;;;;1031301;28;1910;-43
2022/01/08 02:46:28;;;;;;;;;;;;;;;;;;1031260;28;818;-44
2022/01/08 02:46:58;;;;;;;;;;;;;;;;;;1031506;28;847;-43
2022/01/08 02:47:29;;;;;;;;;;;;;;;;;;1031307;28;953;-43
2022/01/08 02:47:59;;;;;;;;;;;;;;;;;;1031432;28;795;-43
2022/01/08 02:48:29;;;;;;;;;;;;;;;;;;1031311;28;861;-43
2022/01/08 02:49:00;;;;;;;;;;;;;;;;;;1027971;28;1394;-43
2022/01/08 02:49:34;;;;;;;;;;;;;;;;;;1027374;28;776;-43
2022/01/08 02:50:04;;;;;;;;;;;;;;;;;;1027370;28;855;-43
2022/01/08 02:50:34;;;;;;;;;;;;;;;;;;1027177;28;823;-43
2022/01/08 02:51:05;;;;;;;;;;;;;;;;;;1027405;28;931;-43
2022/01/08 02:51:35;;;;;;;;;;;;;;;;;;1027223;28;1001;-43
2022/01/08 02:52:07;;;;;;;;;;;;;;;;;;1027266;28;946;-43
2022/01/08 02:52:41;;;;;;;;;;;;;;;;;;1027375;28;906;-43
2022/01/08 02:53:12;;;;;;;;;;;;;;;;;;1027318;28;941;-43
2022/01/08 02:53:42;;;;;;;;;;;;;;;;;;1027324;28;954;-43
2022/01/08 02:54:12;;;;;;;;;;;;;;;;;;1027377;28;894;-43
2022/01/08 02:54:42;;;;;;;;;;;;;;;;;;1027278;28;903;-43
2022/01/08 02:55:14;;;;;;;;;;;;;;;;;;1027421;28;831;-43
2022/01/08 02:55:44;;;;;;;;;;;;;;;;;;1027152;28;787;-43
2022/01/08 02:56:15;;;;;;;;;;;;;;;;;;1027549;28;842;-43
2022/01/08 02:56:46;;;;;;;;;;;;;;;;;;1027196;28;911;-40
2022/01/08 02:57:16;;;;;;;;;;;;;;;;;;1027393;28;898;-43
2022/01/08 02:57:47;;;;;;;;;;;;;;;;;;1027377;28;866;-43
2022/01/08 02:58:17;;;;;;;;;;;;;;;;;;1027318;28;887;-43
2022/01/08 02:58:47;;;;;;;;;;;;;;;;;;1027326;28;922;-43
2022/01/08 02:59:18;;;;;;;;;;;;;;;;;;1027399;28;808;-43
2022/01/08 02:59:48;;;;;;;;;;;;;;;;;;1027215;28;961;-42
2022/01/08 03:00:19;;;;;;;;;;;;;;;;;;1027310;28;1038;-43
2022/01/08 03:00:49;;;;;;;;;;;;;;;;;;1027399;28;863;-43
2022/01/08 03:01:20;;;;;;;;;;;;;;;;;;1027312;28;1024;-43
2022/01/08 03:01:50;;;;;;;;;;;;;;;;;;1027264;28;875;-43
2022/01/08 03:02:20;;;;;;;;;;;;;;;;;;1027295;28;862;-43
2022/01/08 03:02:52;;;;;;;;;;;;;;;;;;1027387;28;919;-43
2022/01/08 03:03:22;;;;;;;;;;;;;;;;;;1027349;28;863;-43
2022/01/08 03:03:56;;;;;;;;;;;;;;;;;;1027235;28;890;-43
2022/01/08 03:04:26;;;;;;;;;;;;;;;;;;1027338;28;878;-43
2022/01/08 03:04:56;;;;;;;;;;;;;;;;;;1027421;28;882;-43
2022/01/08 03:05:28;;;;;;;;;;;;;;;;;;1027138;28;922;-43
2022/01/08 03:05:58;;;;;;;;;;;;;;;;;;1027399;28;1907;-43
2022/01/08 03:06:28;;;;;;;;;;;;;;;;;;1027183;28;1168;-43
2022/01/08 03:06:58;;;;;;;;;;;;;;;;;;1027385;28;992;-43
2022/01/08 03:07:29;;;;;;;;;;;;;;;;;;1027156;28;870;-43
2022/01/08 03:07:59;;;;;;;;;;;;;;;;;;1027419;28;875;-43
2022/01/08 03:08:30;;;;;;;;;;;;;;;;;;1027264;28;945;-43
2022/01/08 03:09:00;;;;;;;;;;;;;;;;;;1027335;28;815;-43
2022/01/08 03:09:34;;;;;;;;;;;;;;;;;;1026833;28;859;-43
2022/01/08 03:10:08;;;;;;;;;;;;;;;;;;1026915;28;866;-43
2022/01/08 03:10:38;;;;;;;;;;;;;;;;;;1027085;28;827;-43
2022/01/08 03:11:09;;;;;;;;;;;;;;;;;;1027071;28;906;-43
2022/01/08 03:11:39;;;;;;;;;;;;;;;;;;1027203;28;867;-43
2022/01/08 03:12:09;;;;;;;;;;;;;;;;;;1027362;28;902;-43
2022/01/08 03:12:42;;;;;;;;;;;;;;;;;;1027447;28;1174;-43
2022/01/08 03:13:12;;;;;;;;;;;;;;;;;;1027224;28;934;-44
2022/01/08 03:13:43;;;;;;;;;;;;;;;;;;1027402;28;828;-43
2022/01/08 03:14:13;;;;;;;;;;;;;;;;;;1027194;28;772;-43
2022/01/08 03:14:43;;;;;;;;;;;;;;;;;;1027497;28;1615;-43
2022/01/08 03:15:16;;;;;;;;;;;;;;;;;;1027429;28;958;-43
2022/01/08 03:15:46;;;;;;;;;;;;;;;;;;1027131;28;1013;-43
2022/01/08 03:16:17;;;;;;;;;;;;;;;;;;1027394;28;911;-43
2022/01/08 03:16:48;;;;;;;;;;;;;;;;;;1027193;28;934;-43
2022/01/08 03:17:18;;;;;;;;;;;;;;;;;;1027318;28;1687;-43
2022/01/08 03:17:49;;;;;;;;;;;;;;;;;;1027144;28;1017;-43
2022/01/08 03:18:19;;;;;;;;;;;;;;;;;;1027289;28;950;-43
2022/01/08 03:18:50;;;;;;;;;;;;;;;;;;1027395;28;843;-43
2022/01/08 03:19:20;;;;;;;;;;;;;;;;;;1027296;28;898;-42
2022/01/08 03:19:52;;;;;;;;;;;;;;;;;;1027176;28;862;-43
2022/01/08 03:20:23;;;;;;;;;;;;;;;;;;1027250;28;930;-43
2022/01/08 03:21:01;;;;;;;;;;;;;;;;;;1027260;28;926;-43
2022/01/08 03:21:35;;;;;;;;;;;;;;;;;;1027124;28;1384;-43
2022/01/08 03:22:05;;;;;;;;;;;;;;;;;;1027192;28;867;-43
2022/01/08 03:22:37;;;;;;;;;;;;;;;;;;1027371;28;926;-43
2022/01/08 03:23:13;;;;;;;;;;;;;;;;;;1027345;28;890;-43
2022/01/08 03:23:49;;;;;;;;;;;;;;;;;;1027052;28;910;-43
2022/01/08 03:24:27;;;;;;;;;;;;;;;;;;1027297;28;1139;-43
2022/01/08 03:24:58;;;;;;;;;;;;;;;;;;1027313;28;1285;-43
2022/01/08 03:25:29;;;;;;;;;;;;;;;;;;1027131;28;910;-43
2022/01/08 03:26:00;;;;;;;;;;;;;;;;;;1027364;28;1899;-43
2022/01/08 03:26:30;;;;;;;;;;;;;;;;;;1027100;28;907;-43
2022/01/08 03:27:00;;;;;;;;;;;;;;;;;;1027425;28;899;-43
2022/01/08 03:27:31;;;;;;;;;;;;;;;;;;1027011;28;808;-43
2022/01/08 03:28:01;;;;;;;;;;;;;;;;;;1027589;28;875;-42
2022/01/08 03:28:32;;;;;;;;;;;;;;;;;;1027173;28;804;-43
2022/01/08 03:29:02;;;;;;;;;;;;;;;;;;1027475;28;915;-43
2022/01/08 03:29:32;;;;;;;;;;;;;;;;;;1027187;28;954;-43
2022/01/08 03:30:04;;;;;;;;;;;;;;;;;;1027426;28;815;-43
2022/01/08 03:30:35;;;;;;;;;;;;;;;;;;1027121;28;843;-43
2022/01/08 03:31:05;;;;;;;;;;;;;;;;;;1027382;28;1016;-43
2022/01/08 03:31:35;;;;;;;;;;;;;;;;;;1030961;28;1147;-43
2022/01/08 03:32:06;;;;;;;;;;;;;;;;;;1031271;28;973;-43
2022/01/08 03:32:36;;;;;;;;;;;;;;;;;;1031262;28;847;-43
2022/01/08 03:33:07;;;;;;;;;;;;;;;;;;1031394;28;819;-43
2022/01/08 03:33:37;;;;;;;;;;;;;;;;;;1031380;28;846;-43
2022/01/08 03:34:08;;;;;;;;;;;;;;;;;;1031325;28;775;-43
2022/01/08 03:34:38;;;;;;;;;;;;;;;;;;1031217;28;958;-43
2022/01/08 03:35:09;;;;;;;;;;;;;;;;;;1031259;28;1284;-43
2022/01/08 03:35:39;;;;;;;;;;;;;;;;;;1031175;28;831;-43
2022/01/08 03:36:10;;;;;;;;;;;;;;;;;;1031387;28;930;-43
2022/01/08 03:36:40;;;;;;;;;;;;;;;;;;1031188;28;827;-43
2022/01/08 03:37:11;;;;;;;;;;;;;;;;;;1031342;28;910;-43
2022/01/08 03:37:41;;;;;;;;;;;;;;;;;;1031217;28;1005;-43
2022/01/08 03:38:12;;;;;;;;;;;;;;;;;;1031212;28;874;-43
2022/01/08 03:38:42;;;;;;;;;;;;;;;;;;1031232;28;970;-43
2022/01/08 03:39:12;;;;;;;;;;;;;;;;;;1031303;28;815;-43
2022/01/08 03:39:43;;;;;;;;;;;;;;;;;;1031178;28;839;-42
2022/01/08 03:40:13;;;;;;;;;;;;;;;;;;1031357;28;950;-43
2022/01/08 03:40:44;;;;;;;;;;;;;;;;;;1031089;28;854;-43
2022/01/08 03:41:14;;;;;;;;;;;;;;;;;;1031432;28;898;-43
2022/01/08 03:41:45;;;;;;;;;;;;;;;;;;1031128;28;930;-42
2022/01/08 03:42:15;;;;;;;;;;;;;;;;;;1031221;28;1665;-42
2022/01/08 03:42:46;;;;;;;;;;;;;;;;;;1031254;28;863;-43
2022/01/08 03:43:16;;;;;;;;;;;;;;;;;;1031247;28;1382;-42
2022/01/08 03:43:46;;;;;;;;;;;;;;;;;;1031141;28;906;-43
2022/01/08 03:44:17;;;;;;;;;;;;;;;;;;1031405;28;815;-43
2022/01/08 03:44:47;;;;;;;;;;;;;;;;;;1031171;28;791;-42
2022/01/08 03:45:17;;;;;;;;;;;;;;;;;;1031318;28;909;-43
2022/01/08 03:45:48;;;;;;;;;;;;;;;;;;1031094;28;1910;-43
2022/01/08 03:46:20;;;;;;;;;;;;;;;;;;1031261;28;937;-43
2022/01/08 03:46:50;;;;;;;;;;;;;;;;;;1031180;28;1064;-43
2022/01/08 03:49:09;;;;;;;;;;;;;;;;;;1029522;28;1177;-43
2022/01/08 03:49:37;;;;;;;;;;;;;;;;;;1027784;28;1398;-43
2022/01/08 03:50:07;;;;;;;;;;;;;;;;;;1027862;28;807;-44
2022/01/08 03:50:37;;;;;;;;;;;;;;;;;;1027972;28;903;-43
2022/01/08 03:51:08;;;;;;;;;;;;;;;;;;1027875;28;942;-43
2022/01/08 03:51:40;;;;;;;;;;;;;;;;;;1027980;28;866;-43
2022/01/08 03:52:12;;;;;;;;;;;;;;;;;;1028040;28;859;-43
2022/01/08 03:52:45;;;;;;;;;;;;;;;;;;1027898;28;922;-43
2022/01/08 03:53:16;;;;;;;;;;;;;;;;;;1028039;28;883;-43
2022/01/08 03:53:46;;;;;;;;;;;;;;;;;;1027832;28;828;-43
2022/01/08 03:54:16;;;;;;;;;;;;;;;;;;1028015;28;784;-43
2022/01/08 03:54:47;;;;;;;;;;;;;;;;;;1028001;28;898;-43
2022/01/08 03:55:18;;;;;;;;;;;;;;;;;;1027864;28;914;-43
2022/01/08 03:55:48;;;;;;;;;;;;;;;;;;1023513;29;586;-42
2022/01/08 03:56:18;;;;;;;;;;;;;;;;;;1023741;29;949;-43
2022/01/08 03:56:49;;;;;;;;;;;;;;;;;;1023471;29;898;-43
2022/01/08 03:57:20;;;;;;;;;;;;;;;;;;1023924;28;957;-43
2022/01/08 03:57:50;;;;;;;;;;;;;;;;;;1027756;28;851;-43
2022/01/08 03:58:20;;;;;;;;;;;;;;;;;;1027954;28;930;-43
2022/01/08 03:58:51;;;;;;;;;;;;;;;;;;1027807;28;1245;-43
2022/01/08 03:59:21;;;;;;;;;;;;;;;;;;1027923;28;981;-43
2022/01/08 03:59:51;;;;;;;;;;;;;;;;;;1027762;28;800;-43
2022/01/08 04:00:21;;;;;;;;;;;;;;;;;;1027849;28;795;-43